createdAt,value
2018-12-01T00:00:54.531Z,101115.77
2018-12-01T00:03:22.167Z,101109.24
2018-12-01T00:05:49.847Z,101113.12
2018-12-01T00:08:17.540Z,101120.17
2018-12-01T00:10:45.204Z,101119.34
2018-12-01T00:13:12.908Z,101119.30
2018-12-01T00:15:40.601Z,101118.45
2018-12-01T00:18:08.276Z,101107.95
2018-12-01T00:20:38.042Z,101111.45
2018-12-01T00:23:06.712Z,101114.98
2018-12-01T00:25:34.452Z,101116.72
2018-12-01T00:28:02.208Z,101106.73
2018-12-01T00:30:29.916Z,101111.59
2018-12-01T00:46:41.249Z,101105.08
2018-12-01T00:49:09.185Z,101111.66
2018-12-01T00:51:36.862Z,101109.91
2018-12-01T00:54:04.680Z,101105.10
2018-12-01T00:56:45.098Z,101102.97
2018-12-01T00:59:15.134Z,101105.05
2018-12-01T01:01:43.057Z,101101.09
2018-12-01T01:04:12.487Z,101095.46
2018-12-01T01:08:05.191Z,101105.08
2018-12-01T01:10:34.697Z,101105.10
2018-12-01T01:13:01.645Z,101105.95
2018-12-01T01:15:29.420Z,101110.66
2018-12-01T01:17:57.170Z,101109.27
2018-12-01T01:20:25.105Z,101111.05
2018-12-01T01:22:52.911Z,101110.58
2018-12-01T01:25:20.627Z,101118.42
2018-12-01T01:27:48.470Z,101116.27
2018-12-01T01:30:19.065Z,101120.61
2018-12-01T01:32:47.033Z,101124.14
2018-12-01T01:35:14.792Z,101117.98
2018-12-01T01:37:42.505Z,101121.92
2018-12-01T01:40:14.965Z,101117.55
2018-12-01T01:42:42.716Z,101116.27
2018-12-01T01:45:12.667Z,101110.17
2018-12-01T01:47:40.534Z,101111.95
2018-12-01T01:50:14.619Z,101112.79
2018-12-01T01:52:42.393Z,101107.95
2018-12-01T01:55:11.005Z,101111.89
2018-12-01T01:57:38.926Z,101104.08
2018-12-01T02:00:14.092Z,101104.08
2018-12-01T02:02:44.541Z,101105.33
2018-12-01T02:05:12.235Z,101095.74
2018-12-01T02:07:39.999Z,101084.02
2018-12-01T02:10:08.396Z,101081.45
2018-12-01T02:12:36.068Z,101087.10
2018-12-01T02:15:04.294Z,101093.25
2018-12-01T02:17:31.981Z,101095.41
2018-12-01T02:19:59.633Z,101096.72
2018-12-01T02:22:27.451Z,101098.91
2018-12-01T02:24:55.196Z,101099.81
2018-12-01T02:27:22.972Z,101091.09
2018-12-01T02:29:50.687Z,101090.66
2018-12-01T02:32:18.421Z,101079.72
2018-12-01T02:34:46.116Z,101081.47
2018-12-01T02:37:13.871Z,101086.33
2018-12-01T02:39:41.574Z,101088.95
2018-12-01T02:42:09.316Z,101092.40
2018-12-01T02:44:58.017Z,101087.15
2018-12-01T02:47:25.838Z,101082.76
2018-12-01T02:49:53.968Z,101095.02
2018-12-01T02:52:21.712Z,101095.46
2018-12-01T02:54:51.116Z,101092.40
2018-12-01T02:57:18.902Z,101095.46
2018-12-01T02:59:46.633Z,101092.38
2018-12-01T03:02:14.687Z,101100.23
2018-12-01T03:04:42.408Z,101104.56
2018-12-01T03:07:10.289Z,101102.41
2018-12-01T03:09:38.079Z,101101.96
2018-12-01T03:12:05.847Z,101103.74
2018-12-01T03:14:33.757Z,101099.83
2018-12-01T03:17:01.504Z,101101.55
2018-12-01T03:19:29.292Z,101106.75
2018-12-01T03:21:57.464Z,101101.53
2018-12-01T03:24:25.209Z,101102.84
2018-12-01T03:26:52.980Z,101098.52
2018-12-01T03:29:20.752Z,101100.70
2018-12-01T03:31:48.531Z,101100.23
2018-12-01T03:34:16.333Z,101105.08
2018-12-01T03:36:44.084Z,101098.95
2018-12-01T03:39:15.387Z,101096.83
2018-12-01T03:41:43.289Z,101096.41
2018-12-01T03:44:10.989Z,101096.44
2018-12-01T03:46:38.781Z,101099.09
2018-12-01T03:49:09.300Z,101100.40
2018-12-01T03:51:37.039Z,101102.12
2018-12-01T03:54:04.832Z,101108.67
2018-12-01T03:56:32.631Z,101113.88
2018-12-01T03:59:03.560Z,101111.69
2018-12-01T04:01:31.747Z,101114.77
2018-12-01T04:03:59.522Z,101108.67
2018-12-01T04:06:27.301Z,101108.31
2018-12-01T04:08:55.004Z,101114.45
2018-12-01T04:11:22.716Z,101107.11
2018-12-01T04:13:50.493Z,101108.08
2018-12-01T04:16:18.498Z,101111.58
2018-12-01T04:18:46.239Z,101108.13
2018-12-01T04:21:14.017Z,101101.56
2018-12-01T04:23:41.932Z,101100.67
2018-12-01T04:26:09.765Z,101107.20
2018-12-01T04:28:37.513Z,101106.77
2018-12-01T04:31:05.248Z,101108.05
2018-12-01T04:33:32.953Z,101117.23
2018-12-01T04:36:00.661Z,101122.45
2018-12-01T04:38:28.374Z,101121.96
2018-12-01T04:40:56.096Z,101121.06
2018-12-01T04:43:24.015Z,101126.26
2018-12-01T04:45:51.758Z,101128.47
2018-12-01T04:48:19.487Z,101131.48
2018-12-01T04:50:47.204Z,101128.37
2018-12-01T04:53:14.843Z,101127.03
2018-12-01T04:55:42.603Z,101134.00
2018-12-01T04:58:10.353Z,101122.56
2018-12-01T05:00:38.075Z,101131.80
2018-12-01T05:03:05.804Z,101126.06
2018-12-01T05:05:33.539Z,101127.76
2018-12-01T05:08:01.425Z,101123.80
2018-12-01T05:10:29.178Z,101129.43
2018-12-01T05:12:56.948Z,101122.84
2018-12-01T05:15:24.729Z,101129.38
2018-12-01T05:17:52.503Z,101129.84
2018-12-01T05:20:22.582Z,101129.43
2018-12-01T05:22:51.116Z,101137.71
2018-12-01T05:25:18.920Z,101139.44
2018-12-01T05:27:46.709Z,101138.59
2018-12-01T05:30:14.662Z,101143.32
2018-12-01T05:32:42.716Z,101137.64
2018-12-01T05:35:13.255Z,101137.61
2018-12-01T05:37:40.992Z,101139.36
2018-12-01T05:40:09.930Z,101138.56
2018-12-01T05:42:37.705Z,101134.19
2018-12-01T05:45:14.273Z,101135.94
2018-12-01T05:47:42.065Z,101143.86
2018-12-01T05:50:10.435Z,101142.06
2018-12-01T05:52:38.244Z,101143.78
2018-12-01T05:55:10.855Z,101146.44
2018-12-01T05:57:38.596Z,101150.44
2018-12-01T06:00:11.705Z,101152.78
2018-12-01T06:02:39.531Z,101156.66
2018-12-01T06:05:08.143Z,101166.33
2018-12-01T06:07:35.779Z,101155.42
2018-12-01T06:10:04.069Z,101154.16
2018-12-01T06:12:31.772Z,101159.89
2018-12-01T06:14:59.503Z,101158.53
2018-12-01T06:17:27.295Z,101155.55
2018-12-01T06:19:54.995Z,101152.97
2018-12-01T06:22:22.597Z,101157.32
2018-12-01T06:24:50.251Z,101163.41
2018-12-01T06:27:18.043Z,101159.05
2018-12-01T06:29:45.694Z,101165.06
2018-12-01T06:32:13.351Z,101163.70
2018-12-01T06:34:41.005Z,101163.22
2018-12-01T06:37:08.691Z,101157.47
2018-12-01T06:39:36.396Z,101155.28
2018-12-01T06:42:04.025Z,101150.47
2018-12-01T06:44:31.667Z,101146.91
2018-12-01T06:46:59.446Z,101151.30
2018-12-01T06:49:27.246Z,101141.67
2018-12-01T06:51:54.924Z,101135.98
2018-12-01T06:54:22.615Z,101136.89
2018-12-01T06:56:50.263Z,101130.34
2018-12-01T06:59:17.894Z,101137.69
2018-12-01T07:01:45.605Z,101148.18
2018-12-01T07:04:13.230Z,101145.13
2018-12-01T07:06:40.901Z,101148.98
2018-12-01T07:09:09.713Z,101149.92
2018-12-01T07:11:37.689Z,101147.75
2018-12-01T07:14:05.907Z,101150.42
2018-12-01T07:16:33.669Z,101150.44
2018-12-01T07:19:18.958Z,101155.25
2018-12-01T07:21:46.698Z,101157.88
2018-12-01T07:24:14.377Z,101147.38
2018-12-01T07:26:41.998Z,101153.92
2018-12-01T07:29:09.616Z,101146.98
2018-12-01T07:31:37.426Z,101144.77
2018-12-01T07:34:05.797Z,101149.98
2018-12-01T07:36:33.524Z,101153.42
2018-12-01T07:39:01.160Z,101142.94
2018-12-01T07:41:28.842Z,101135.92
2018-12-01T07:43:56.496Z,101139.34
2018-12-01T07:46:24.132Z,101138.92
2018-12-01T07:48:52.057Z,101139.74
2018-12-01T07:51:19.712Z,101134.94
2018-12-01T07:53:47.334Z,101129.20
2018-12-01T07:56:15.025Z,101137.07
2018-12-01T07:58:42.636Z,101141.83
2018-12-01T08:01:10.315Z,101135.30
2018-12-01T08:03:37.948Z,101133.95
2018-12-01T08:06:05.624Z,101130.02
2018-12-01T08:08:33.264Z,101136.17
2018-12-01T08:11:00.904Z,101134.45
2018-12-01T08:13:28.536Z,101135.30
2018-12-01T08:15:56.191Z,101135.77
2018-12-01T08:18:23.987Z,101140.52
2018-12-01T08:20:52.572Z,101141.77
2018-12-01T08:23:19.383Z,101132.63
2018-12-01T08:25:47.067Z,101144.40
2018-12-01T08:28:16.579Z,101151.42
2018-12-01T08:30:44.238Z,101157.11
2018-12-01T08:33:11.876Z,101148.77
2018-12-01T08:35:39.597Z,101153.17
2018-12-01T08:38:07.281Z,101148.86
2018-12-01T08:40:35.155Z,101152.34
2018-12-01T08:43:02.904Z,101152.34
2018-12-01T08:45:30.589Z,101153.64
2018-12-01T08:47:58.311Z,101151.42
2018-12-01T08:50:25.976Z,101147.55
2018-12-01T08:52:53.732Z,101142.73
2018-12-01T08:55:23.339Z,101141.01
2018-12-01T08:57:51.620Z,101144.48
2018-12-01T09:00:23.667Z,101139.20
2018-12-01T09:03:00.732Z,101138.77
2018-12-01T09:05:28.367Z,101140.03
2018-12-01T09:07:56.030Z,101140.05
2018-12-01T09:10:23.715Z,101139.18
2018-12-01T09:12:51.379Z,101146.14
2018-12-01T09:15:19.041Z,101136.94
2018-12-01T09:17:46.880Z,101145.28
2018-12-01T09:20:14.610Z,101146.98
2018-12-01T09:22:50.485Z,101148.72
2018-12-01T09:25:18.697Z,101152.63
2018-12-01T09:27:46.860Z,101155.64
2018-12-01T09:30:23.296Z,101160.39
2018-12-01T09:32:51.038Z,101160.38
2018-12-01T09:35:18.886Z,101163.47
2018-12-01T09:37:46.573Z,101164.75
2018-12-01T09:40:16.134Z,101157.70
2018-12-01T09:42:43.993Z,101158.19
2018-12-01T09:45:15.452Z,101153.81
2018-12-01T09:47:44.133Z,101155.09
2018-12-01T09:50:12.835Z,101161.22
2018-12-01T09:52:40.599Z,101158.58
2018-12-01T09:55:09.486Z,101166.47
2018-12-01T09:57:37.281Z,101163.00
2018-12-01T10:00:12.425Z,101161.69
2018-12-01T10:02:40.177Z,101161.25
2018-12-01T10:05:09.575Z,101166.91
2018-12-01T10:07:37.463Z,101168.19
2018-12-01T10:10:09.608Z,101166.00
2018-12-01T10:12:37.328Z,101170.00
2018-12-01T10:15:07.692Z,101171.23
2018-12-01T10:17:35.453Z,101179.10
2018-12-01T10:20:03.250Z,101171.25
2018-12-01T10:22:31.034Z,101174.38
2018-12-01T10:24:58.757Z,101170.81
2018-12-01T10:27:26.520Z,101173.39
2018-12-01T10:29:54.381Z,101175.11
2018-12-01T10:32:22.127Z,101178.26
2018-12-01T10:34:49.836Z,101179.10
2018-12-01T10:37:17.634Z,101174.73
2018-12-01T10:39:45.414Z,101175.11
2018-12-01T10:42:13.159Z,101178.17
2018-12-01T10:44:40.924Z,101170.33
2018-12-01T10:47:08.681Z,101168.55
2018-12-01T10:49:36.578Z,101161.99
2018-12-01T10:52:04.377Z,101150.57
2018-12-01T10:54:32.141Z,101145.65
2018-12-01T10:56:59.907Z,101135.56
2018-12-01T10:59:27.869Z,101125.49
2018-12-01T11:02:01.063Z,101130.34
2018-12-01T11:04:34.384Z,101128.06
2018-12-01T11:07:02.263Z,101113.12
2018-12-01T11:09:29.997Z,101107.45
2018-12-01T11:11:57.785Z,101110.86
2018-12-01T11:14:25.498Z,101112.11
2018-12-01T11:16:53.262Z,101106.77
2018-12-01T11:19:21.085Z,101111.97
2018-12-01T11:21:48.798Z,101107.16
2018-12-01T11:24:16.492Z,101108.47
2018-12-01T11:26:44.403Z,101104.91
2018-12-01T11:29:12.169Z,101105.75
2018-12-01T11:31:39.897Z,101115.32
2018-12-01T11:34:07.637Z,101129.33
2018-12-01T11:36:35.417Z,101127.61
2018-12-01T11:39:04.261Z,101125.83
2018-12-01T11:41:38.622Z,101125.41
2018-12-01T11:44:07.164Z,101126.73
2018-12-01T11:46:34.636Z,101128.05
2018-12-01T11:49:02.404Z,101124.10
2018-12-01T11:51:30.326Z,101108.34
2018-12-01T11:53:58.071Z,101106.62
2018-12-01T11:56:25.781Z,101093.00
2018-12-01T11:58:53.599Z,101086.34
2018-12-01T12:01:21.362Z,101086.34
2018-12-01T12:03:49.236Z,101089.84
2018-12-01T12:06:17.006Z,101093.31
2018-12-01T12:08:44.742Z,101094.60
2018-12-01T12:11:12.526Z,101094.13
2018-12-01T12:13:40.271Z,101093.66
2018-12-01T12:16:08.024Z,101091.53
2018-12-01T12:18:35.833Z,101088.91
2018-12-01T12:21:03.512Z,101100.17
2018-12-01T12:23:31.330Z,101096.17
2018-12-01T12:25:59.012Z,101092.61
2018-12-01T12:28:26.640Z,101097.89
2018-12-01T12:30:54.375Z,101079.94
2018-12-01T12:33:22.021Z,101072.59
2018-12-01T12:35:49.690Z,101071.72
2018-12-01T12:38:17.346Z,101065.18
2018-12-01T12:40:45.000Z,101070.90
2018-12-01T12:43:12.670Z,101073.05
2018-12-01T12:45:40.366Z,101068.30
2018-12-01T12:48:08.919Z,101081.88
2018-12-01T12:50:36.638Z,101083.69
2018-12-01T12:53:04.515Z,101084.13
2018-12-01T12:55:32.221Z,101082.38
2018-12-01T12:57:59.938Z,101079.28
2018-12-01T13:00:28.720Z,101070.59
2018-12-01T13:02:57.776Z,101073.22
2018-12-01T13:05:26.921Z,101072.43
2018-12-01T13:07:54.630Z,101070.23
2018-12-01T13:10:23.560Z,101065.84
2018-12-01T13:12:51.850Z,101068.89
2018-12-01T13:15:18.980Z,101069.30
2018-12-01T13:17:46.877Z,101069.77
2018-12-01T13:20:15.557Z,101076.40
2018-12-01T13:22:43.264Z,101077.33
2018-12-01T13:25:12.987Z,101076.95
2018-12-01T13:27:43.130Z,101080.90
2018-12-01T13:30:13.975Z,101082.20
2018-12-01T13:32:41.640Z,101084.86
2018-12-01T13:35:09.338Z,101084.39
2018-12-01T13:37:37.118Z,101082.64
2018-12-01T13:40:08.452Z,101086.99
2018-12-01T13:42:36.275Z,101083.95
2018-12-01T13:45:04.330Z,101083.52
2018-12-01T13:47:31.987Z,101091.80
2018-12-01T13:49:59.694Z,101090.96
2018-12-01T13:52:27.570Z,101085.70
2018-12-01T13:54:55.340Z,101086.14
2018-12-01T13:57:22.935Z,101079.20
2018-12-01T13:59:50.607Z,101080.11
2018-12-01T14:02:18.275Z,101076.61
2018-12-01T14:04:45.929Z,101076.17
2018-12-01T14:07:13.758Z,101074.02
2018-12-01T14:09:41.415Z,101078.36
2018-12-01T14:12:09.081Z,101078.33
2018-12-01T14:14:36.751Z,101070.89
2018-12-01T14:17:04.386Z,101063.48
2018-12-01T14:19:32.187Z,101077.48
2018-12-01T14:21:59.780Z,101070.11
2018-12-01T14:24:27.437Z,101062.73
2018-12-01T14:26:55.102Z,101062.28
2018-12-01T14:29:22.760Z,101061.91
2018-12-01T14:31:50.398Z,101059.78
2018-12-01T14:34:18.086Z,101059.31
2018-12-01T14:36:45.757Z,101053.22
2018-12-01T14:39:13.385Z,101052.88
2018-12-01T14:41:41.027Z,101053.34
2018-12-01T14:44:08.685Z,101053.77
2018-12-01T14:46:36.425Z,101053.30
2018-12-01T14:49:04.390Z,101046.77
2018-12-01T14:51:32.044Z,101049.02
2018-12-01T14:53:59.738Z,101043.38
2018-12-01T14:56:27.405Z,101046.01
2018-12-01T14:58:55.271Z,101040.35
2018-12-01T15:01:22.889Z,101030.79
2018-12-01T15:03:50.502Z,101034.70
2018-12-01T15:06:18.169Z,101030.35
2018-12-01T15:08:45.811Z,101029.91
2018-12-01T15:11:13.467Z,101026.39
2018-12-01T15:13:41.106Z,101025.92
2018-12-01T15:16:08.875Z,101015.45
2018-12-01T15:18:36.516Z,101018.05
2018-12-01T15:21:04.317Z,101021.55
2018-12-01T15:23:32.000Z,101013.20
2018-12-01T15:25:59.656Z,101004.90
2018-12-01T15:28:27.371Z,101005.33
2018-12-01T15:30:55.013Z,101001.45
2018-12-01T15:33:22.722Z,100998.83
2018-12-01T15:35:50.376Z,100993.17
2018-12-01T15:38:18.084Z,100989.20
2018-12-01T15:40:47.276Z,100988.86
2018-12-01T15:43:14.944Z,100993.27
2018-12-01T15:45:42.604Z,100993.27
2018-12-01T15:48:10.240Z,100992.86
2018-12-01T15:50:37.997Z,100991.98
2018-12-01T15:53:08.519Z,100991.98
2018-12-01T15:55:36.219Z,100987.67
2018-12-01T15:58:03.879Z,100985.86
2018-12-01T16:00:31.528Z,100982.83
2018-12-01T16:02:59.194Z,100978.48
2018-12-01T16:05:26.856Z,100970.61
2018-12-01T16:07:57.938Z,100971.45
2018-12-01T16:10:25.722Z,100965.80
2018-12-01T16:13:01.023Z,100967.52
2018-12-01T16:15:30.455Z,100966.67
2018-12-01T16:17:58.143Z,100960.58
2018-12-01T16:20:25.810Z,100950.98
2018-12-01T16:22:53.495Z,100950.08
2018-12-01T16:25:22.404Z,100933.02
2018-12-01T16:27:50.215Z,100926.47
2018-12-01T16:30:27.518Z,100916.84
2018-12-01T16:32:56.773Z,100917.75
2018-12-01T16:35:24.432Z,100929.59
2018-12-01T16:37:52.242Z,100923.47
2018-12-01T16:40:31.404Z,100925.19
2018-12-01T16:43:00.516Z,100917.38
2018-12-01T16:45:28.177Z,100914.25
2018-12-01T16:47:55.872Z,100913.44
2018-12-01T16:50:23.551Z,100919.53
2018-12-01T16:52:51.207Z,100916.44
2018-12-01T16:55:18.954Z,100916.00
2018-12-01T16:57:46.594Z,100925.66
2018-12-01T17:00:17.497Z,100924.34
2018-12-01T17:02:47.432Z,100919.94
2018-12-01T17:05:16.434Z,100923.88
2018-12-01T17:07:44.135Z,100916.88
2018-12-01T17:10:26.659Z,100910.31
2018-12-01T17:12:55.549Z,100904.66
2018-12-01T17:15:23.187Z,100908.66
2018-12-01T17:17:50.832Z,100905.13
2018-12-01T17:20:18.791Z,100902.95
2018-12-01T17:22:48.972Z,100904.63
2018-12-01T17:25:16.728Z,100902.88
2018-12-01T17:27:44.865Z,100899.48
2018-12-01T17:30:15.437Z,100898.54
2018-12-01T17:32:43.105Z,100894.58
2018-12-01T17:35:13.154Z,100901.13
2018-12-01T17:37:40.908Z,100896.79
2018-12-01T17:40:12.140Z,100895.88
2018-12-01T17:42:40.179Z,100897.20
2018-12-01T17:45:09.596Z,100891.08
2018-12-01T17:47:37.281Z,100888.42
2018-12-01T17:50:11.364Z,100880.55
2018-12-01T17:52:39.486Z,100881.05
2018-12-01T17:55:09.798Z,100879.77
2018-12-01T17:57:37.502Z,100866.61
2018-12-01T18:00:11.095Z,100860.97
2018-12-01T18:02:38.728Z,100863.08
2018-12-01T18:05:09.114Z,100860.09
2018-12-01T18:07:36.895Z,100865.77
2018-12-01T18:10:08.214Z,100861.80
2018-12-01T18:12:34.973Z,100868.84
2018-12-01T18:15:02.873Z,100868.33
2018-12-01T18:17:30.583Z,100866.11
2018-12-01T18:19:58.247Z,100864.40
2018-12-01T18:22:25.896Z,100868.30
2018-12-01T18:24:53.638Z,100870.95
2018-12-01T18:27:21.315Z,100861.77
2018-12-01T18:29:48.976Z,100861.77
2018-12-01T18:32:16.631Z,100861.37
2018-12-01T18:34:44.424Z,100859.18
2018-12-01T18:37:12.116Z,100857.40
2018-12-01T18:39:39.759Z,100863.49
2018-12-01T18:42:07.390Z,100862.17
2018-12-01T18:44:35.025Z,100855.25
2018-12-01T18:47:02.644Z,100857.47
2018-12-01T18:49:30.276Z,100858.34
2018-12-01T18:51:57.940Z,100855.25
2018-12-01T18:54:25.607Z,100852.62
2018-12-01T18:56:53.427Z,100851.78
2018-12-01T18:59:21.088Z,100847.37
2018-12-01T19:01:50.767Z,100843.81
2018-12-01T19:04:18.437Z,100841.69
2018-12-01T19:06:46.126Z,100842.59
2018-12-01T19:09:13.799Z,100834.76
2018-12-01T19:11:41.567Z,100831.30
2018-12-01T19:14:09.182Z,100822.98
2018-12-01T19:16:36.846Z,100822.14
2018-12-01T19:19:04.779Z,100816.09
2018-12-01T19:21:32.417Z,100811.24
2018-12-01T19:24:00.108Z,100812.08
2018-12-01T19:26:27.831Z,100801.62
2018-12-01T19:28:55.472Z,100793.72
2018-12-01T19:31:23.126Z,100795.88
2018-12-01T19:33:50.870Z,100798.02
2018-12-01T19:36:18.542Z,100788.38
2018-12-01T19:38:46.250Z,100781.78
2018-12-01T19:41:13.959Z,100783.13
2018-12-01T19:43:41.589Z,100774.38
2018-12-01T19:46:09.380Z,100767.38
2018-12-01T19:48:37.024Z,100762.13
2018-12-01T19:51:05.051Z,100748.98
2018-12-01T19:53:32.702Z,100740.64
2018-12-01T19:56:00.361Z,100741.48
2018-12-01T19:58:29.126Z,100738.85
2018-12-01T20:00:57.726Z,100730.58
2018-12-01T20:03:26.861Z,100720.59
2018-12-01T20:05:54.509Z,100710.50
2018-12-01T20:08:22.701Z,100705.66
2018-12-01T20:10:55.560Z,100704.78
2018-12-01T20:13:25.983Z,100695.66
2018-12-01T20:15:58.970Z,100693.04
2018-12-01T20:18:27.516Z,100691.36
2018-12-01T20:20:55.220Z,100692.20
2018-12-01T20:23:22.866Z,100690.48
2018-12-01T20:25:51.180Z,100690.09
2018-12-01T20:28:18.917Z,100690.48
2018-12-01T20:30:47.270Z,100684.47
2018-12-01T20:33:15.550Z,100679.27
2018-12-01T20:35:47.590Z,100676.23
2018-12-01T20:38:33.984Z,100676.60
2018-12-01T20:41:01.593Z,100670.48
2018-12-01T20:43:29.252Z,100671.39
2018-12-01T20:45:56.905Z,100675.77
2018-12-01T20:48:24.584Z,100674.48
2018-12-01T20:50:52.340Z,100679.00
2018-12-01T20:53:20.003Z,100681.16
2018-12-01T20:55:50.835Z,100671.50
2018-12-01T20:58:18.521Z,100667.97
2018-12-01T21:00:46.234Z,100661.01
2018-12-01T21:03:13.902Z,100658.38
2018-12-01T21:05:41.554Z,100654.81
2018-12-01T21:08:09.388Z,100648.30
2018-12-01T21:10:39.791Z,100640.89
2018-12-01T21:13:07.522Z,100637.36
2018-12-01T21:15:35.214Z,100640.39
2018-12-01T21:18:02.888Z,100639.08
2018-12-01T21:20:30.547Z,100639.03
2018-12-01T21:22:58.319Z,100628.55
2018-12-01T21:25:27.187Z,100626.47
2018-12-01T21:27:56.423Z,100628.69
2018-12-01T21:30:26.126Z,100619.87
2018-12-01T21:33:00.189Z,100612.52
2018-12-01T21:35:27.887Z,100614.16
2018-12-01T21:37:55.610Z,100608.03
2018-12-01T21:40:23.247Z,100600.59
2018-12-01T21:42:50.906Z,100600.64
2018-12-01T21:45:18.788Z,100595.94
2018-12-01T21:47:46.541Z,100588.11
2018-12-01T21:50:16.319Z,100588.11
2018-12-01T21:52:46.158Z,100590.73
2018-12-01T21:55:13.807Z,100584.13
2018-12-01T21:57:42.871Z,100579.80
2018-12-01T22:00:13.257Z,100577.61
2018-12-01T22:02:40.868Z,100572.05
2018-12-01T22:05:11.755Z,100565.05
2018-12-01T22:07:39.424Z,100559.80
2018-12-01T22:10:10.273Z,100548.44
2018-12-01T22:12:38.197Z,100541.92
2018-12-01T22:15:08.432Z,100543.23
2018-12-01T22:17:36.101Z,100540.57
2018-12-01T22:20:05.845Z,100540.61
2018-12-01T22:22:33.499Z,100534.81
2018-12-01T22:25:01.126Z,100534.41
2018-12-01T22:27:28.966Z,100527.45
2018-12-01T22:29:56.644Z,100524.03
2018-12-01T22:32:24.389Z,100520.50
2018-12-01T22:34:52.048Z,100522.28
2018-12-01T22:37:19.705Z,100520.58
2018-12-01T22:39:47.326Z,100515.30
2018-12-01T22:42:15.003Z,100516.64
2018-12-01T22:44:42.675Z,100523.23
2018-12-01T22:47:10.292Z,100513.26
2018-12-01T22:49:38.049Z,100509.77
2018-12-01T22:52:05.660Z,100511.08
2018-12-01T22:54:33.286Z,100504.04
2018-12-01T22:57:00.976Z,100499.67
2018-12-01T22:59:28.629Z,100496.17
2018-12-01T23:01:56.543Z,100502.26
2018-12-01T23:04:24.176Z,100498.84
2018-12-01T23:06:51.846Z,100492.24
2018-12-01T23:09:19.537Z,100493.55
2018-12-01T23:11:47.150Z,100486.12
2018-12-01T23:14:14.761Z,100478.70
2018-12-01T23:16:42.444Z,100475.23
2018-12-01T23:19:10.245Z,100467.80
2018-12-01T23:21:37.890Z,100469.59
2018-12-01T23:24:05.767Z,100463.91
2018-12-01T23:26:33.432Z,100459.14
2018-12-01T23:29:01.076Z,100458.27
2018-12-01T23:31:28.735Z,100452.55
2018-12-01T23:33:56.380Z,100449.45
2018-12-01T23:36:24.085Z,100444.72
2018-12-01T23:38:51.700Z,100438.56
2018-12-01T23:41:19.528Z,100437.29
2018-12-01T23:43:47.163Z,100433.31
2018-12-01T23:46:14.967Z,100434.63
2018-12-01T23:48:42.586Z,100425.45
2018-12-01T23:51:10.224Z,100424.09
2018-12-01T23:53:37.861Z,100421.47
2018-12-01T23:56:05.813Z,100419.30
2018-12-01T23:58:33.445Z,100417.06
